sensor_id;sensor_type;location;lat;lon;timestamp;P1;durP1;ratioP1;P2;durP2;ratioP2
11685;SDS011;5899;51.282;6.094;2023-09-08T06:37:15;5.85;;;4.70;;
11685;SDS011;5899;51.282;6.094;2023-09-08T06:39:50;5.10;;;4.60;;
11685;SDS011;5899;51.282;6.094;2023-09-08T06:42:17;6.15;;;4.93;;
11685;SDS011;5899;51.282;6.094;2023-09-08T06:44:58;6.43;;;4.80;;
11685;SDS011;5899;51.282;6.094;2023-09-08T06:47:35;6.53;;;5.05;;
11685;SDS011;5899;51.282;6.094;2023-09-08T06:50:07;5.47;;;4.95;;
11685;SDS011;5899;51.282;6.094;2023-09-08T06:55:39;6.35;;;4.85;;
11685;SDS011;5899;51.282;6.094;2023-09-08T06:58:05;5.35;;;4.85;;
11685;SDS011;5899;51.282;6.094;2023-09-08T15:45:55;4.40;;;3.60;;
11685;SDS011;5899;51.282;6.094;2023-09-08T15:51:46;3.72;;;3.33;;
11685;SDS011;5899;51.282;6.094;2023-09-08T15:58:07;4.35;;;3.85;;
11685;SDS011;5899;51.282;6.094;2023-09-08T16:01:05;4.10;;;3.65;;
11685;SDS011;5899;51.282;6.094;2023-09-08T16:50:30;5.38;;;3.42;;
11685;SDS011;5899;51.282;6.094;2023-09-08T16:53:16;3.70;;;3.40;;
11685;SDS011;5899;51.282;6.094;2023-09-08T16:56:13;3.83;;;3.50;;
11685;SDS011;5899;51.282;6.094;2023-09-08T16:59:07;3.60;;;3.30;;
11685;SDS011;5899;51.282;6.094;2023-09-08T21:28:08;9.03;;;8.10;;
11685;SDS011;5899;51.282;6.094;2023-09-08T21:31:04;10.35;;;8.77;;
11685;SDS011;5899;51.282;6.094;2023-09-08T21:34:03;8.85;;;7.97;;
11685;SDS011;5899;51.282;6.094;2023-09-08T21:36:34;9.60;;;7.70;;
11685;SDS011;5899;51.282;6.094;2023-09-08T21:39:04;8.73;;;7.93;;
11685;SDS011;5899;51.282;6.094;2023-09-08T21:41:45;9.77;;;8.73;;
11685;SDS011;5899;51.282;6.094;2023-09-08T21:47:19;8.70;;;7.80;;
11685;SDS011;5899;51.282;6.094;2023-09-08T21:50:08;8.65;;;7.70;;
11685;SDS011;5899;51.282;6.094;2023-09-08T21:52:57;8.93;;;8.02;;
11685;SDS011;5899;51.282;6.094;2023-09-08T21:55:28;11.73;;;8.48;;
11685;SDS011;5899;51.282;6.094;2023-09-08T21:58:16;11.05;;;9.38;;
11685;SDS011;5899;51.282;6.094;2023-09-08T22:00:50;12.30;;;11.00;;
11685;SDS011;5899;51.282;6.094;2023-09-08T22:03:23;12.90;;;10.23;;
11685;SDS011;5899;51.282;6.094;2023-09-08T22:09:08;13.52;;;11.55;;
11685;SDS011;5899;51.282;6.094;2023-09-08T22:17:12;12.95;;;11.23;;
11685;SDS011;5899;51.282;6.094;2023-09-08T22:19:59;12.05;;;10.50;;
11685;SDS011;5899;51.282;6.094;2023-09-08T22:25:35;12.48;;;10.43;;
11685;SDS011;5899;51.282;6.094;2023-09-08T22:28:32;11.63;;;10.02;;
11685;SDS011;5899;51.282;6.094;2023-09-08T22:31:13;11.93;;;10.33;;
11685;SDS011;5899;51.282;6.094;2023-09-08T22:33:59;10.60;;;9.60;;
11685;SDS011;5899;51.282;6.094;2023-09-08T22:45:15;10.95;;;9.85;;
11685;SDS011;5899;51.282;6.094;2023-09-08T22:48:07;11.98;;;10.20;;
11685;SDS011;5899;51.282;6.094;2023-09-08T22:50:38;10.50;;;9.40;;
11685;SDS011;5899;51.282;6.094;2023-09-08T22:53:10;12.52;;;10.23;;
11685;SDS011;5899;51.282;6.094;2023-09-08T22:55:40;17.77;;;13.77;;
11685;SDS011;5899;51.282;6.094;2023-09-08T22:58:12;13.55;;;11.07;;
11685;SDS011;5899;51.282;6.094;2023-09-08T23:00:41;11.27;;;10.05;;
11685;SDS011;5899;51.282;6.094;2023-09-08T23:04:00;12.07;;;9.88;;
11685;SDS011;5899;51.282;6.094;2023-09-08T23:06:16;9.75;;;8.75;;
11685;SDS011;5899;51.282;6.094;2023-09-08T23:08:47;10.45;;;9.32;;
11685;SDS011;5899;51.282;6.094;2023-09-08T23:11:19;10.82;;;9.65;;
11685;SDS011;5899;51.282;6.094;2023-09-08T23:14:07;11.63;;;9.40;;
11685;SDS011;5899;51.282;6.094;2023-09-08T23:16:48;9.50;;;8.60;;
11685;SDS011;5899;51.282;6.094;2023-09-08T23:19:27;9.55;;;8.55;;
11685;SDS011;5899;51.282;6.094;2023-09-08T23:22:02;11.60;;;10.40;;
11685;SDS011;5899;51.282;6.094;2023-09-08T23:25:01;10.27;;;9.17;;
11685;SDS011;5899;51.282;6.094;2023-09-08T23:27:33;10.97;;;9.87;;
11685;SDS011;5899;51.282;6.094;2023-09-08T23:30:01;10.98;;;8.85;;
11685;SDS011;5899;51.282;6.094;2023-09-08T23:32:38;10.77;;;9.20;;
11685;SDS011;5899;51.282;6.094;2023-09-08T23:35:20;10.38;;;7.57;;
11685;SDS011;5899;51.282;6.094;2023-09-08T23:38:04;10.00;;;8.90;;
11685;SDS011;5899;51.282;6.094;2023-09-08T23:40:43;10.02;;;8.57;;
11685;SDS011;5899;51.282;6.094;2023-09-08T23:43:21;10.65;;;9.05;;
11685;SDS011;5899;51.282;6.094;2023-09-08T23:46:07;10.57;;;8.75;;
11685;SDS011;5899;51.282;6.094;2023-09-08T23:51:43;11.00;;;9.00;;
11685;SDS011;5899;51.282;6.094;2023-09-08T23:54:17;9.15;;;8.15;;
11685;SDS011;5899;51.282;6.094;2023-09-08T23:59:37;10.15;;;9.15;;
